createdAt,value
2023-04-17T00:00:13.020Z,30.40
2023-04-17T00:02:41.362Z,30.40
2023-04-17T00:05:10.580Z,30.88
2023-04-17T00:07:39.354Z,31.58
2023-04-17T00:10:09.525Z,44.60
2023-04-17T00:12:39.426Z,25.02
2023-04-17T00:15:08.722Z,31.63
2023-04-17T00:17:36.894Z,34.83
2023-04-17T00:20:09.994Z,27.65
2023-04-17T00:22:38.451Z,32.60
2023-04-17T00:25:07.416Z,27.42
2023-04-17T00:27:35.645Z,35.28
2023-04-17T00:30:05.987Z,28.83
2023-04-17T00:32:34.151Z,47.60
2023-04-17T00:35:02.426Z,38.47
2023-04-17T00:37:30.555Z,26.92
2023-04-17T00:39:58.755Z,41.08
2023-04-17T00:42:27.045Z,37.95
2023-04-17T00:44:55.214Z,35.58
2023-04-17T00:47:26.483Z,26.88
2023-04-17T00:49:54.731Z,32.90
2023-04-17T00:52:30.350Z,35.15
2023-04-17T00:55:00.069Z,31.55
2023-04-17T00:57:28.653Z,31.77
2023-04-17T00:59:58.334Z,30.27
2023-04-17T01:02:28.423Z,25.30
2023-04-17T01:04:56.912Z,23.77
2023-04-17T01:07:25.538Z,37.47
2023-04-17T01:09:53.790Z,36.70
2023-04-17T01:12:23.650Z,40.40
2023-04-17T01:14:52.144Z,31.10
2023-04-17T01:17:21.789Z,34.22
2023-04-17T01:19:51.778Z,33.58
2023-04-17T01:22:21.086Z,32.13
2023-04-17T01:24:50.941Z,27.95
2023-04-17T01:27:19.100Z,35.83
2023-04-17T01:29:47.959Z,23.98
2023-04-17T01:32:16.228Z,46.42
2023-04-17T01:34:44.663Z,39.83
2023-04-17T01:37:12.887Z,44.50
2023-04-17T01:39:41.073Z,39.47
2023-04-17T01:42:10.776Z,45.63
2023-04-17T01:44:39.129Z,26.42
2023-04-17T01:47:07.261Z,31.00
2023-04-17T01:49:35.502Z,34.25
2023-04-17T01:52:03.631Z,42.08
2023-04-17T01:54:31.771Z,39.97
2023-04-17T01:57:00.196Z,27.58
2023-04-17T01:59:29.721Z,41.00
2023-04-17T02:01:58.008Z,45.65
2023-04-17T02:04:26.381Z,29.73
2023-04-17T02:06:54.982Z,44.22
2023-04-17T02:09:23.126Z,30.17
2023-04-17T02:11:51.557Z,60.50
2023-04-17T02:14:19.955Z,49.13
2023-04-17T02:16:50.237Z,50.25
2023-04-17T02:19:18.423Z,45.92
2023-04-17T02:21:46.545Z,43.45
2023-04-17T02:24:14.717Z,44.08
2023-04-17T02:26:42.839Z,44.55
2023-04-17T02:29:11.407Z,43.30
2023-04-17T02:31:42.916Z,34.65
2023-04-17T02:34:12.742Z,30.05
2023-04-17T02:36:41.462Z,53.05
2023-04-17T02:39:09.621Z,53.40
2023-04-17T02:41:37.771Z,45.25
2023-04-17T02:44:06.090Z,49.88
2023-04-17T02:46:34.376Z,39.63
2023-04-17T02:49:02.607Z,31.20
2023-04-17T02:51:32.125Z,55.97
2023-04-17T02:54:00.305Z,63.17
2023-04-17T02:56:28.698Z,66.88
2023-04-17T02:58:57.212Z,41.42
2023-04-17T03:01:26.410Z,43.20
2023-04-17T03:03:54.978Z,37.30
2023-04-17T03:06:24.101Z,32.92
2023-04-17T03:08:53.815Z,54.22
2023-04-17T03:11:22.010Z,44.65
2023-04-17T03:13:50.289Z,58.08
2023-04-17T03:16:18.708Z,60.75
2023-04-17T03:18:47.086Z,54.65
2023-04-17T03:21:15.186Z,53.63
2023-04-17T03:23:43.843Z,59.40
2023-04-17T03:26:13.446Z,55.03
2023-04-17T03:28:41.890Z,51.95
2023-04-17T03:31:10.008Z,37.22
2023-04-17T03:33:38.824Z,34.30
2023-04-17T03:36:07.508Z,45.13
2023-04-17T03:38:36.987Z,46.47
2023-04-17T03:41:05.242Z,38.13
2023-04-17T03:43:34.718Z,53.20
2023-04-17T03:46:02.941Z,42.47
2023-04-17T03:48:31.408Z,50.67
2023-04-17T03:50:59.579Z,50.60
2023-04-17T03:53:27.701Z,26.23
2023-04-17T03:55:55.922Z,39.13
2023-04-17T03:58:24.095Z,54.30
2023-04-17T04:00:55.588Z,49.35
2023-04-17T04:03:23.886Z,42.15
2023-04-17T04:05:52.180Z,42.45
2023-04-17T04:08:20.450Z,43.45
2023-04-17T04:10:48.792Z,38.47
2023-04-17T04:13:17.007Z,38.60
2023-04-17T04:15:45.228Z,22.92
2023-04-17T04:18:14.743Z,42.85
2023-04-17T04:20:42.906Z,44.00
2023-04-17T04:23:11.342Z,38.05
2023-04-17T04:25:41.769Z,44.92
2023-04-17T04:28:10.604Z,42.75
2023-04-17T04:30:39.703Z,34.70
2023-04-17T04:33:08.450Z,39.75
2023-04-17T04:35:38.569Z,26.65
2023-04-17T04:38:06.862Z,45.80
2023-04-17T04:40:38.172Z,30.02
2023-04-17T04:43:06.833Z,28.80
2023-04-17T04:45:35.016Z,42.05
2023-04-17T04:48:03.441Z,46.30
2023-04-17T04:50:32.027Z,43.20
2023-04-17T04:53:01.600Z,53.90
2023-04-17T04:55:30.764Z,33.70
2023-04-17T04:57:58.972Z,41.03
2023-04-17T05:00:27.172Z,33.03
2023-04-17T05:02:55.678Z,30.88
2023-04-17T05:05:25.424Z,44.83
2023-04-17T05:07:53.625Z,40.92
2023-04-17T05:10:23.292Z,45.53
2023-04-17T05:12:51.426Z,33.60
2023-04-17T05:15:19.710Z,38.75
2023-04-17T05:17:48.145Z,45.28
2023-04-17T05:20:16.373Z,40.92
2023-04-17T05:22:44.571Z,32.40
2023-04-17T05:25:12.693Z,40.50
2023-04-17T05:27:42.532Z,28.40
2023-04-17T05:30:11.677Z,30.02
2023-04-17T05:32:39.866Z,31.02
2023-04-17T05:35:08.543Z,32.78
2023-04-17T05:37:36.642Z,27.95
2023-04-17T05:40:07.207Z,33.10
2023-04-17T05:42:35.479Z,28.35
2023-04-17T05:45:05.769Z,34.63
2023-04-17T05:47:36.808Z,31.70
2023-04-17T05:50:05.661Z,22.33
2023-04-17T05:52:33.906Z,23.92
2023-04-17T05:55:02.094Z,25.95
2023-04-17T05:57:30.464Z,44.47
2023-04-17T05:59:58.580Z,35.40
2023-04-17T06:02:28.309Z,28.52
2023-04-17T06:04:58.482Z,45.35
2023-04-17T06:07:27.277Z,34.17
2023-04-17T06:09:55.608Z,36.72
2023-04-17T06:12:23.803Z,33.63
2023-04-17T06:14:52.055Z,31.17
2023-04-17T06:17:20.375Z,29.95
2023-04-17T06:19:49.974Z,34.50
2023-04-17T06:22:18.145Z,35.85
2023-04-17T06:24:46.601Z,44.35
2023-04-17T06:27:14.762Z,43.85
2023-04-17T06:29:42.967Z,35.30
2023-04-17T06:32:11.157Z,40.17
2023-04-17T06:34:48.928Z,29.95
2023-04-17T06:37:27.936Z,32.03
2023-04-17T06:39:56.066Z,28.10
2023-04-17T06:42:24.927Z,46.33
2023-04-17T06:44:54.525Z,42.25
2023-04-17T06:47:22.730Z,26.67
2023-04-17T06:49:51.086Z,47.55
2023-04-17T06:52:20.248Z,39.33
2023-04-17T06:54:49.795Z,40.83
2023-04-17T06:57:17.955Z,31.75
2023-04-17T06:59:46.188Z,37.47
2023-04-17T07:02:14.626Z,43.17
2023-04-17T07:04:43.039Z,41.45
2023-04-17T07:07:12.628Z,41.65
2023-04-17T07:09:41.949Z,32.70
2023-04-17T07:12:11.458Z,37.15
2023-04-17T07:14:40.697Z,39.15
2023-04-17T07:17:08.974Z,45.90
2023-04-17T07:19:37.956Z,45.30
2023-04-17T07:22:06.640Z,45.15
2023-04-17T07:24:35.165Z,34.28
2023-04-17T07:27:03.938Z,27.40
2023-04-17T07:29:33.996Z,36.78
2023-04-17T07:32:02.183Z,30.48
2023-04-17T07:34:31.343Z,38.72
2023-04-17T07:36:59.533Z,36.97
2023-04-17T07:39:31.586Z,36.85
2023-04-17T07:42:00.260Z,37.00
2023-04-17T07:44:28.692Z,40.38
2023-04-17T07:46:58.577Z,31.98
2023-04-17T07:49:27.056Z,27.27
2023-04-17T07:51:56.173Z,31.23
2023-04-17T07:54:24.782Z,26.58
2023-04-17T07:56:53.282Z,34.42
2023-04-17T07:59:21.688Z,34.88
2023-04-17T08:01:50.539Z,38.78
2023-04-17T08:04:21.244Z,44.10
2023-04-17T08:06:50.611Z,29.88
2023-04-17T08:09:19.070Z,37.35
2023-04-17T08:11:56.310Z,45.50
2023-04-17T08:14:25.956Z,36.25
2023-04-17T08:16:54.401Z,50.10
2023-04-17T08:19:24.252Z,47.33
2023-04-17T08:21:52.770Z,49.13
2023-04-17T08:24:21.168Z,31.75
2023-04-17T08:26:49.661Z,32.30
2023-04-17T08:29:18.117Z,44.78
2023-04-17T08:31:46.513Z,46.25
2023-04-17T08:34:15.742Z,41.85
2023-04-17T08:36:46.541Z,40.55
2023-04-17T08:39:16.528Z,34.00
2023-04-17T08:41:47.371Z,36.25
2023-04-17T08:44:16.935Z,33.85
2023-04-17T08:46:45.631Z,38.20
2023-04-17T08:49:14.367Z,35.70
2023-04-17T08:51:43.467Z,31.05
2023-04-17T08:54:13.311Z,35.03
2023-04-17T08:56:41.709Z,53.83
2023-04-17T08:59:10.294Z,36.50
2023-04-17T09:01:38.900Z,40.80
2023-04-17T09:04:07.708Z,37.50
2023-04-17T09:06:52.902Z,35.92
2023-04-17T09:09:22.705Z,37.60
2023-04-17T09:12:06.127Z,44.25
2023-04-17T09:14:34.617Z,39.42
2023-04-17T09:17:03.065Z,32.72
2023-04-17T09:19:33.930Z,48.28
2023-04-17T09:22:18.360Z,33.05
2023-04-17T09:24:48.493Z,40.35
2023-04-17T09:27:23.436Z,36.75
2023-04-17T09:29:58.390Z,41.92
2023-04-17T09:32:26.992Z,35.85
2023-04-17T09:34:57.001Z,35.55
2023-04-17T09:37:25.557Z,35.53
2023-04-17T09:39:59.088Z,40.40
2023-04-17T09:42:27.980Z,30.50
2023-04-17T09:44:57.864Z,29.25
2023-04-17T09:47:26.247Z,38.67
2023-04-17T09:49:55.884Z,25.25
2023-04-17T09:52:25.556Z,28.60
2023-04-17T09:54:54.231Z,43.15
2023-04-17T09:57:24.072Z,41.75
2023-04-17T09:59:52.821Z,38.13
2023-04-17T10:02:22.692Z,46.72
2023-04-17T10:04:51.376Z,39.80
2023-04-17T10:07:19.785Z,34.35
2023-04-17T10:09:48.813Z,24.65
2023-04-17T10:12:18.628Z,42.00
2023-04-17T10:14:49.965Z,33.17
2023-04-17T10:17:24.981Z,34.85
2023-04-17T10:19:53.918Z,39.35
2023-04-17T10:22:32.171Z,38.10
2023-04-17T10:25:20.188Z,32.42
2023-04-17T10:27:51.140Z,43.33
2023-04-17T10:30:22.643Z,37.53
2023-04-17T10:33:08.403Z,32.65
2023-04-17T10:35:38.231Z,30.60
2023-04-17T10:38:07.773Z,27.75
2023-04-17T10:40:36.857Z,36.03
2023-04-17T10:43:06.301Z,44.65
2023-04-17T10:45:49.704Z,30.52
2023-04-17T10:48:23.412Z,30.85
2023-04-17T10:50:51.851Z,34.40
2023-04-17T10:53:44.215Z,39.63
2023-04-17T10:56:13.238Z,34.72
2023-04-17T10:58:57.195Z,41.50
2023-04-17T11:01:27.529Z,31.27
2023-04-17T11:03:59.644Z,35.85
2023-04-17T11:06:29.408Z,39.65
2023-04-17T11:08:58.054Z,33.22
2023-04-17T11:11:40.411Z,40.70
2023-04-17T11:14:14.688Z,38.05
2023-04-17T11:16:44.337Z,36.30
2023-04-17T11:19:15.177Z,37.78
2023-04-17T11:21:44.133Z,35.10
2023-04-17T11:24:12.954Z,28.75
2023-04-17T11:26:45.126Z,26.38
2023-04-17T11:29:16.938Z,33.42
2023-04-17T11:31:46.755Z,30.90
2023-04-17T11:34:18.516Z,36.28
2023-04-17T11:36:50.823Z,34.78
2023-04-17T11:39:19.863Z,37.85
2023-04-17T11:41:48.533Z,33.90
2023-04-17T11:44:18.786Z,29.17
2023-04-17T11:46:50.854Z,31.33
2023-04-17T11:49:25.714Z,28.15
2023-04-17T11:51:57.732Z,34.15
2023-04-17T11:54:29.382Z,25.67
2023-04-17T11:57:01.739Z,31.63
2023-04-17T11:59:33.908Z,25.45
2023-04-17T12:02:03.406Z,27.10
2023-04-17T12:04:34.925Z,33.95
2023-04-17T12:07:03.872Z,29.80
2023-04-17T12:09:32.753Z,27.23
2023-04-17T12:12:01.358Z,32.92
2023-04-17T12:14:29.866Z,29.35
2023-04-17T12:16:58.271Z,24.85
2023-04-17T12:19:27.459Z,32.95
2023-04-17T12:21:59.262Z,30.40
2023-04-17T12:24:27.829Z,31.25
2023-04-17T12:26:57.158Z,30.30
2023-04-17T12:29:40.511Z,26.60
2023-04-17T12:32:12.839Z,33.83
2023-04-17T12:34:41.596Z,27.80
2023-04-17T12:37:11.613Z,26.73
2023-04-17T12:39:40.115Z,29.30
2023-04-17T12:42:08.561Z,30.02
2023-04-17T12:44:36.969Z,34.30
2023-04-17T12:47:05.527Z,28.40
2023-04-17T12:49:34.016Z,34.13
2023-04-17T12:52:03.897Z,33.45
2023-04-17T12:54:34.067Z,25.75
2023-04-17T12:57:03.354Z,31.38
2023-04-17T12:59:31.858Z,24.70
2023-04-17T13:02:00.515Z,30.13
2023-04-17T13:04:29.536Z,29.92
2023-04-17T13:06:58.073Z,29.95
2023-04-17T13:09:26.626Z,23.88
2023-04-17T13:11:57.649Z,30.20
2023-04-17T13:14:26.087Z,27.05
2023-04-17T13:16:54.556Z,22.73
2023-04-17T13:19:23.060Z,30.02
2023-04-17T13:21:53.152Z,35.53
2023-04-17T13:24:21.640Z,30.38
2023-04-17T13:26:50.125Z,25.85
2023-04-17T13:29:20.071Z,34.55
2023-04-17T13:31:49.597Z,30.08
2023-04-17T13:34:18.094Z,28.38
2023-04-17T13:36:46.625Z,27.30
2023-04-17T13:39:18.017Z,29.90
2023-04-17T13:41:46.827Z,27.73
2023-04-17T13:44:16.348Z,29.80
2023-04-17T13:46:46.380Z,29.55
2023-04-17T13:49:15.216Z,29.23
2023-04-17T13:51:43.749Z,26.38
2023-04-17T13:54:12.187Z,30.83
2023-04-17T13:56:40.678Z,26.65
2023-04-17T13:59:09.090Z,28.17
2023-04-17T14:01:37.611Z,24.05
2023-04-17T14:04:08.031Z,29.98
2023-04-17T14:06:38.715Z,29.90
2023-04-17T14:09:07.516Z,24.65
2023-04-17T14:11:35.675Z,26.27
2023-04-17T14:14:04.194Z,25.55
2023-04-17T14:16:32.600Z,28.55
2023-04-17T14:19:13.265Z,28.35
2023-04-17T14:21:44.332Z,23.60
2023-04-17T14:24:12.794Z,32.45
2023-04-17T14:26:41.359Z,31.73
2023-04-17T14:29:10.886Z,24.88
2023-04-17T14:31:39.616Z,24.38
2023-04-17T14:34:08.594Z,25.20
2023-04-17T14:36:37.055Z,29.35
2023-04-17T14:39:07.124Z,23.30
2023-04-17T14:41:35.581Z,24.80
2023-04-17T14:44:04.040Z,27.77
2023-04-17T14:46:32.639Z,25.00
2023-04-17T14:49:01.308Z,20.27
2023-04-17T14:51:30.674Z,23.33
2023-04-17T14:53:59.359Z,20.92
2023-04-17T14:56:29.208Z,29.40
2023-04-17T14:58:57.678Z,24.80
2023-04-17T15:01:26.203Z,24.55
2023-04-17T15:03:54.944Z,22.23
2023-04-17T15:06:23.614Z,24.33
2023-04-17T15:08:52.033Z,20.80
2023-04-17T15:11:21.046Z,22.83
2023-04-17T15:13:50.916Z,28.25
2023-04-17T15:16:19.587Z,22.45
2023-04-17T15:18:48.104Z,28.45
2023-04-17T15:21:17.453Z,22.95
2023-04-17T15:23:46.074Z,25.48
2023-04-17T15:26:14.726Z,25.40
2023-04-17T15:28:43.121Z,25.27
2023-04-17T15:31:12.898Z,28.83
2023-04-17T15:33:41.370Z,27.48
2023-04-17T15:36:10.062Z,21.77
2023-04-17T15:38:38.472Z,25.33
2023-04-17T15:41:08.255Z,27.38
2023-04-17T15:43:37.813Z,28.20
2023-04-17T15:46:06.523Z,24.02
2023-04-17T15:48:36.339Z,20.33
2023-04-17T15:51:04.910Z,19.83
2023-04-17T15:53:33.788Z,20.90
2023-04-17T15:56:02.304Z,22.27
2023-04-17T15:58:30.929Z,23.60
2023-04-17T16:00:59.445Z,25.17
2023-04-17T16:03:28.027Z,22.33
2023-04-17T16:05:58.080Z,22.17
2023-04-17T16:08:26.960Z,16.35
2023-04-17T16:10:55.389Z,22.27
2023-04-17T16:13:23.850Z,16.58
2023-04-17T16:15:52.310Z,23.17
2023-04-17T16:18:20.866Z,18.35
2023-04-17T16:20:49.330Z,20.60
2023-04-17T16:23:19.224Z,17.10
2023-04-17T16:25:47.649Z,19.42
2023-04-17T16:28:16.209Z,21.67
2023-04-17T16:30:44.656Z,17.73
2023-04-17T16:33:13.081Z,23.55
2023-04-17T16:35:41.508Z,15.48
2023-04-17T16:38:09.928Z,21.35
2023-04-17T16:40:39.705Z,17.45
2023-04-17T16:43:09.069Z,18.40
2023-04-17T16:45:38.166Z,16.45
2023-04-17T16:48:09.019Z,15.90
2023-04-17T16:50:37.663Z,21.73
2023-04-17T16:53:06.078Z,19.20
2023-04-17T16:55:34.518Z,22.60
2023-04-17T16:58:05.032Z,19.60
2023-04-17T17:00:33.575Z,17.40
2023-04-17T17:03:02.157Z,20.15
2023-04-17T17:05:30.738Z,18.90
2023-04-17T17:07:59.087Z,16.85
2023-04-17T17:10:27.526Z,19.45
2023-04-17T17:12:56.006Z,14.38
2023-04-17T17:15:25.942Z,16.08
2023-04-17T17:17:54.430Z,19.05
2023-04-17T17:20:22.843Z,22.13
2023-04-17T17:22:51.249Z,18.90
2023-04-17T17:25:19.732Z,15.13
2023-04-17T17:27:48.165Z,15.88
2023-04-17T17:30:16.728Z,20.45
2023-04-17T17:32:46.569Z,18.73
2023-04-17T17:35:15.227Z,18.63
2023-04-17T17:37:43.654Z,21.20
2023-04-17T17:40:12.395Z,20.10
2023-04-17T17:42:40.778Z,15.88
2023-04-17T17:45:09.580Z,23.17
2023-04-17T17:47:38.082Z,22.30
2023-04-17T17:50:08.749Z,17.42
2023-04-17T17:52:37.206Z,21.25
2023-04-17T17:55:05.822Z,16.17
2023-04-17T17:57:47.868Z,13.48
2023-04-17T18:00:18.079Z,18.58
2023-04-17T18:02:46.777Z,22.88
2023-04-17T18:05:16.628Z,15.73
2023-04-17T18:07:45.098Z,17.63
2023-04-17T18:10:13.548Z,18.75
2023-04-17T18:12:41.909Z,17.90
2023-04-17T18:15:11.041Z,16.23
2023-04-17T18:17:39.476Z,17.70
2023-04-17T18:20:08.427Z,15.90
2023-04-17T18:22:38.481Z,13.07
2023-04-17T18:25:07.364Z,13.45
2023-04-17T18:27:37.042Z,11.45
2023-04-17T18:30:06.326Z,15.70
2023-04-17T18:32:34.933Z,17.35
2023-04-17T18:35:04.238Z,16.05
2023-04-17T18:37:32.692Z,10.85
2023-04-17T18:40:02.480Z,18.90
2023-04-17T18:42:30.943Z,13.57
2023-04-17T18:44:59.469Z,14.57
2023-04-17T18:47:28.114Z,14.98
2023-04-17T18:49:56.668Z,15.05
2023-04-17T18:52:25.127Z,18.45
2023-04-17T18:54:53.620Z,11.38
2023-04-17T18:57:23.526Z,16.35
2023-04-17T18:59:51.944Z,16.63
2023-04-17T19:02:20.480Z,14.13
2023-04-17T19:04:48.949Z,15.13
2023-04-17T19:07:17.920Z,17.55
2023-04-17T19:09:46.353Z,14.32
2023-04-17T19:12:14.792Z,18.67
2023-04-17T19:14:44.582Z,18.83
2023-04-17T19:17:13.008Z,12.20
2023-04-17T19:19:41.445Z,13.10
2023-04-17T19:22:09.929Z,10.80
2023-04-17T19:24:38.330Z,16.13
2023-04-17T19:27:06.719Z,15.63
2023-04-17T19:29:35.156Z,11.55
2023-04-17T19:32:05.137Z,20.30
2023-04-17T19:34:33.618Z,17.75
2023-04-17T19:37:02.074Z,15.52
2023-04-17T19:39:30.516Z,9.25
2023-04-17T19:41:58.924Z,11.60
2023-04-17T19:44:28.058Z,16.77
2023-04-17T19:46:56.967Z,16.05
2023-04-17T19:49:26.758Z,11.75
2023-04-17T19:51:55.179Z,15.55
2023-04-17T19:54:23.619Z,16.75
2023-04-17T19:56:52.078Z,18.13
2023-04-17T19:59:20.506Z,14.45
2023-04-17T20:01:49.136Z,17.05
2023-04-17T20:04:17.612Z,18.35
2023-04-17T20:06:47.518Z,20.52
2023-04-17T20:09:16.710Z,17.02
2023-04-17T20:11:45.447Z,16.83
2023-04-17T20:14:14.719Z,20.70
2023-04-17T20:16:45.395Z,12.48
2023-04-17T20:19:14.319Z,17.88
2023-04-17T20:21:44.069Z,14.82
2023-04-17T20:24:15.831Z,16.42
2023-04-17T20:26:47.418Z,19.90
2023-04-17T20:29:15.973Z,17.33
2023-04-17T20:31:44.665Z,19.10
2023-04-17T20:34:13.200Z,16.27
2023-04-17T20:36:41.614Z,12.90
2023-04-17T20:39:11.103Z,16.17
2023-04-17T20:41:41.142Z,26.80
2023-04-17T20:44:10.195Z,17.05
2023-04-17T20:46:38.614Z,18.20
2023-04-17T20:49:07.021Z,14.65
2023-04-17T20:51:35.460Z,18.50
2023-04-17T20:54:03.910Z,18.10
2023-04-17T20:56:32.317Z,23.70
2023-04-17T20:59:02.107Z,21.20
2023-04-17T21:01:30.690Z,17.10
2023-04-17T21:03:59.288Z,19.63
2023-04-17T21:06:27.775Z,20.25
2023-04-17T21:08:57.098Z,18.83
2023-04-17T21:11:25.547Z,27.45
2023-04-17T21:13:53.963Z,25.58
2023-04-17T21:16:23.771Z,24.63
2023-04-17T21:18:52.177Z,23.00
2023-04-17T21:21:20.625Z,27.88
2023-04-17T21:23:49.070Z,21.20
2023-04-17T21:26:18.695Z,27.02
2023-04-17T21:28:47.099Z,24.83
2023-04-17T21:31:15.780Z,26.40
2023-04-17T21:33:45.720Z,20.25
2023-04-17T21:36:15.421Z,24.27
2023-04-17T21:38:43.869Z,20.55
2023-04-17T21:41:12.274Z,23.95
2023-04-17T21:43:40.706Z,21.48
2023-04-17T21:46:11.402Z,22.58
2023-04-17T21:48:40.356Z,25.50
2023-04-17T21:51:10.264Z,17.52
2023-04-17T21:53:38.873Z,13.48
2023-04-17T21:56:07.442Z,20.10
2023-04-17T21:58:35.896Z,22.25
2023-04-17T22:01:04.637Z,20.15
2023-04-17T22:03:33.116Z,22.23
2023-04-17T22:06:01.859Z,27.17
2023-04-17T22:08:31.591Z,27.00
2023-04-17T22:11:00.017Z,26.85
2023-04-17T22:13:28.443Z,16.40
2023-04-17T22:15:58.393Z,26.85
2023-04-17T22:18:27.517Z,22.08
2023-04-17T22:20:55.917Z,25.50
2023-04-17T22:23:24.305Z,23.58
2023-04-17T22:25:54.086Z,21.73
2023-04-17T22:28:22.556Z,27.35
2023-04-17T22:30:52.432Z,20.13
2023-04-17T22:33:20.903Z,17.80
2023-04-17T22:35:50.029Z,25.10
2023-04-17T22:38:20.788Z,22.67
2023-04-17T22:40:49.219Z,24.20
2023-04-17T22:43:19.094Z,27.42
2023-04-17T22:45:47.535Z,28.75
2023-04-17T22:48:16.001Z,27.58
2023-04-17T22:50:45.559Z,24.27
2023-04-17T22:53:13.956Z,29.10
2023-04-17T22:55:42.374Z,26.65
2023-04-17T22:58:10.764Z,24.67
2023-04-17T23:00:40.555Z,28.45
2023-04-17T23:03:09.068Z,22.88
2023-04-17T23:05:37.669Z,26.92
2023-04-17T23:08:06.068Z,26.77
2023-04-17T23:10:34.473Z,21.45
2023-04-17T23:13:02.957Z,21.45
2023-04-17T23:15:31.330Z,20.65
2023-04-17T23:18:01.181Z,28.45
2023-04-17T23:20:29.595Z,23.80
2023-04-17T23:22:57.983Z,22.55
2023-04-17T23:25:26.377Z,16.00
2023-04-17T23:27:54.816Z,25.20
2023-04-17T23:30:23.176Z,24.50
2023-04-17T23:32:53.575Z,29.38
2023-04-17T23:35:23.817Z,23.80
2023-04-17T23:37:52.360Z,15.00
2023-04-17T23:40:20.746Z,16.40
2023-04-17T23:42:49.192Z,17.50
2023-04-17T23:45:17.552Z,28.77
2023-04-17T23:47:46.017Z,23.92
2023-04-17T23:50:14.516Z,27.20
2023-04-17T23:52:44.270Z,18.10
2023-04-17T23:55:12.695Z,29.08
2023-04-17T23:57:41.235Z,23.92
